sensor_id;sensor_type;location;lat;lon;timestamp;temperature;humidity
43227;DHT22;28839;52.404;9.808;2023-03-21T00:04:54;7.50;99.90
43227;DHT22;28839;52.404;9.808;2023-03-21T00:11:49;7.60;99.90
43227;DHT22;28839;52.404;9.808;2023-03-21T00:18:44;7.60;99.90
43227;DHT22;28839;52.404;9.808;2023-03-21T00:25:40;7.60;99.90
43227;DHT22;28839;52.404;9.808;2023-03-21T00:32:35;7.60;99.90
43227;DHT22;28839;52.404;9.808;2023-03-21T00:39:28;7.50;99.90
43227;DHT22;28839;52.404;9.808;2023-03-21T00:46:23;7.50;99.90
43227;DHT22;28839;52.404;9.808;2023-03-21T00:53:19;7.50;99.90
43227;DHT22;28839;52.404;9.808;2023-03-21T01:00:14;7.50;99.90
43227;DHT22;28839;52.404;9.808;2023-03-21T01:07:09;7.50;99.90
43227;DHT22;28839;52.404;9.808;2023-03-21T01:14:04;7.60;99.90
43227;DHT22;28839;52.404;9.808;2023-03-21T01:20:59;7.60;99.90
43227;DHT22;28839;52.404;9.808;2023-03-21T01:27:53;7.60;99.90
43227;DHT22;28839;52.404;9.808;2023-03-21T01:34:48;7.60;99.90
43227;DHT22;28839;52.404;9.808;2023-03-21T01:41:42;7.60;99.90
43227;DHT22;28839;52.404;9.808;2023-03-21T01:48:38;7.60;99.90
43227;DHT22;28839;52.404;9.808;2023-03-21T01:55:34;7.70;99.90
43227;DHT22;28839;52.404;9.808;2023-03-21T02:02:30;7.60;99.90
43227;DHT22;28839;52.404;9.808;2023-03-21T02:09:27;7.70;99.90
43227;DHT22;28839;52.404;9.808;2023-03-21T02:16:30;7.70;99.90
43227;DHT22;28839;52.404;9.808;2023-03-21T02:23:45;7.70;99.90
43227;DHT22;28839;52.404;9.808;2023-03-21T02:38:07;7.70;99.90
43227;DHT22;28839;52.404;9.808;2023-03-21T02:45:09;7.80;99.90
43227;DHT22;28839;52.404;9.808;2023-03-21T02:52:04;7.70;99.90
43227;DHT22;28839;52.404;9.808;2023-03-21T02:59:02;7.70;99.90
43227;DHT22;28839;52.404;9.808;2023-03-21T03:05:58;7.70;99.90
43227;DHT22;28839;52.404;9.808;2023-03-21T03:13:01;7.70;99.90
43227;DHT22;28839;52.404;9.808;2023-03-21T03:20:10;7.80;99.90
43227;DHT22;28839;52.404;9.808;2023-03-21T03:27:10;7.80;99.90
43227;DHT22;28839;52.404;9.808;2023-03-21T03:34:11;7.80;99.90
43227;DHT22;28839;52.404;9.808;2023-03-21T03:41:11;7.90;99.90
43227;DHT22;28839;52.404;9.808;2023-03-21T03:48:14;7.90;99.90
43227;DHT22;28839;52.404;9.808;2023-03-21T03:55:13;7.90;99.90
43227;DHT22;28839;52.404;9.808;2023-03-21T04:02:10;7.90;99.90
43227;DHT22;28839;52.404;9.808;2023-03-21T04:09:04;7.90;99.90
43227;DHT22;28839;52.404;9.808;2023-03-21T04:15:59;7.90;99.90
43227;DHT22;28839;52.404;9.808;2023-03-21T04:22:54;7.90;99.90
43227;DHT22;28839;52.404;9.808;2023-03-21T04:29:48;7.90;99.90
43227;DHT22;28839;52.404;9.808;2023-03-21T04:36:42;8.00;99.90
43227;DHT22;28839;52.404;9.808;2023-03-21T04:43:39;7.90;99.90
43227;DHT22;28839;52.404;9.808;2023-03-21T04:50:32;8.00;99.90
43227;DHT22;28839;52.404;9.808;2023-03-21T04:57:26;8.10;99.90
43227;DHT22;28839;52.404;9.808;2023-03-21T05:04:22;8.10;99.90
43227;DHT22;28839;52.404;9.808;2023-03-21T05:11:15;8.10;99.90
43227;DHT22;28839;52.404;9.808;2023-03-21T05:18:09;8.10;99.90
43227;DHT22;28839;52.404;9.808;2023-03-21T05:25:06;8.10;99.90
43227;DHT22;28839;52.404;9.808;2023-03-21T05:32:00;8.10;99.90
43227;DHT22;28839;52.404;9.808;2023-03-21T05:38:54;8.10;99.90
43227;DHT22;28839;52.404;9.808;2023-03-21T05:45:49;8.10;99.90
43227;DHT22;28839;52.404;9.808;2023-03-21T05:52:43;8.20;99.90
43227;DHT22;28839;52.404;9.808;2023-03-21T05:59:37;8.20;99.90
43227;DHT22;28839;52.404;9.808;2023-03-21T06:06:32;8.30;99.90
43227;DHT22;28839;52.404;9.808;2023-03-21T06:13:26;8.40;99.90
43227;DHT22;28839;52.404;9.808;2023-03-21T06:20:20;8.40;99.90
43227;DHT22;28839;52.404;9.808;2023-03-21T06:27:15;8.50;99.90
43227;DHT22;28839;52.404;9.808;2023-03-21T06:34:13;8.50;99.90
43227;DHT22;28839;52.404;9.808;2023-03-21T06:41:08;8.60;99.90
43227;DHT22;28839;52.404;9.808;2023-03-21T06:48:04;8.60;99.90
43227;DHT22;28839;52.404;9.808;2023-03-21T06:54:58;8.60;99.90
43227;DHT22;28839;52.404;9.808;2023-03-21T07:01:52;8.70;99.90
43227;DHT22;28839;52.404;9.808;2023-03-21T07:08:47;8.70;99.90
43227;DHT22;28839;52.404;9.808;2023-03-21T07:15:41;8.60;99.90
43227;DHT22;28839;52.404;9.808;2023-03-21T07:22:35;8.70;99.90
43227;DHT22;28839;52.404;9.808;2023-03-21T07:29:30;8.70;99.90
43227;DHT22;28839;52.404;9.808;2023-03-21T07:36:24;8.80;99.90
43227;DHT22;28839;52.404;9.808;2023-03-21T07:43:19;8.90;99.90
43227;DHT22;28839;52.404;9.808;2023-03-21T07:50:14;9.10;99.90
43227;DHT22;28839;52.404;9.808;2023-03-21T07:57:10;9.30;99.90
43227;DHT22;28839;52.404;9.808;2023-03-21T08:04:05;9.60;99.90
43227;DHT22;28839;52.404;9.808;2023-03-21T08:11:03;9.70;99.90
43227;DHT22;28839;52.404;9.808;2023-03-21T08:17:58;9.90;99.90
43227;DHT22;28839;52.404;9.808;2023-03-21T08:24:52;10.00;99.90
43227;DHT22;28839;52.404;9.808;2023-03-21T08:31:48;10.10;99.90
43227;DHT22;28839;52.404;9.808;2023-03-21T08:38:42;10.10;99.90
43227;DHT22;28839;52.404;9.808;2023-03-21T08:45:45;10.10;99.90
43227;DHT22;28839;52.404;9.808;2023-03-21T08:52:41;10.00;99.90
43227;DHT22;28839;52.404;9.808;2023-03-21T08:59:34;10.00;99.90
43227;DHT22;28839;52.404;9.808;2023-03-21T09:06:28;10.10;99.90
43227;DHT22;28839;52.404;9.808;2023-03-21T09:13:24;10.20;99.90
43227;DHT22;28839;52.404;9.808;2023-03-21T09:20:19;10.40;99.90
43227;DHT22;28839;52.404;9.808;2023-03-21T09:27:17;10.40;99.90
43227;DHT22;28839;52.404;9.808;2023-03-21T09:34:16;10.50;99.90
43227;DHT22;28839;52.404;9.808;2023-03-21T09:41:33;10.70;99.90
43227;DHT22;28839;52.404;9.808;2023-03-21T09:48:34;10.80;99.90
43227;DHT22;28839;52.404;9.808;2023-03-21T09:55:34;10.80;99.90
43227;DHT22;28839;52.404;9.808;2023-03-21T10:02:34;11.00;99.90
43227;DHT22;28839;52.404;9.808;2023-03-21T10:09:30;11.20;99.90
43227;DHT22;28839;52.404;9.808;2023-03-21T10:16:30;11.30;99.90
43227;DHT22;28839;52.404;9.808;2023-03-21T10:23:27;11.30;99.90
43227;DHT22;28839;52.404;9.808;2023-03-21T10:30:27;11.20;99.90
43227;DHT22;28839;52.404;9.808;2023-03-21T10:37:24;11.00;99.90
43227;DHT22;28839;52.404;9.808;2023-03-21T10:44:19;11.00;99.90
43227;DHT22;28839;52.404;9.808;2023-03-21T10:51:16;11.00;99.90
43227;DHT22;28839;52.404;9.808;2023-03-21T10:58:16;11.10;99.90
43227;DHT22;28839;52.404;9.808;2023-03-21T11:05:19;11.20;99.90
43227;DHT22;28839;52.404;9.808;2023-03-21T11:12:15;11.20;99.90
43227;DHT22;28839;52.404;9.808;2023-03-21T11:19:16;11.20;99.90
43227;DHT22;28839;52.404;9.808;2023-03-21T11:26:15;11.00;99.90
43227;DHT22;28839;52.404;9.808;2023-03-21T11:33:11;10.90;99.90
43227;DHT22;28839;52.404;9.808;2023-03-21T11:40:18;10.90;99.90
43227;DHT22;28839;52.404;9.808;2023-03-21T11:47:13;10.80;99.90
43227;DHT22;28839;52.404;9.808;2023-03-21T11:54:13;11.00;99.90
43227;DHT22;28839;52.404;9.808;2023-03-21T12:01:16;10.90;99.90
43227;DHT22;28839;52.404;9.808;2023-03-21T12:08:22;10.80;99.90
43227;DHT22;28839;52.404;9.808;2023-03-21T12:15:23;10.80;99.90
43227;DHT22;28839;52.404;9.808;2023-03-21T12:22:27;10.70;99.90
43227;DHT22;28839;52.404;9.808;2023-03-21T12:29:31;10.70;99.90
43227;DHT22;28839;52.404;9.808;2023-03-21T12:36:38;10.80;99.90
43227;DHT22;28839;52.404;9.808;2023-03-21T12:43:41;10.90;99.90
43227;DHT22;28839;52.404;9.808;2023-03-21T12:50:38;10.80;99.90
43227;DHT22;28839;52.404;9.808;2023-03-21T12:57:35;10.80;99.90
43227;DHT22;28839;52.404;9.808;2023-03-21T13:04:38;10.80;99.90
43227;DHT22;28839;52.404;9.808;2023-03-21T13:11:35;10.90;99.90
43227;DHT22;28839;52.404;9.808;2023-03-21T13:18:43;10.80;99.90
43227;DHT22;28839;52.404;9.808;2023-03-21T13:25:47;10.80;99.90
43227;DHT22;28839;52.404;9.808;2023-03-21T13:32:42;10.80;99.90
43227;DHT22;28839;52.404;9.808;2023-03-21T13:39:42;10.80;99.90
43227;DHT22;28839;52.404;9.808;2023-03-21T13:46:44;10.90;99.90
43227;DHT22;28839;52.404;9.808;2023-03-21T13:53:58;10.80;99.90
43227;DHT22;28839;52.404;9.808;2023-03-21T14:01:27;10.70;99.90
43227;DHT22;28839;52.404;9.808;2023-03-21T14:08:26;10.60;99.90
43227;DHT22;28839;52.404;9.808;2023-03-21T14:15:23;10.50;99.90
43227;DHT22;28839;52.404;9.808;2023-03-21T14:22:19;10.50;99.90
43227;DHT22;28839;52.404;9.808;2023-03-21T14:29:19;10.50;99.90
43227;DHT22;28839;52.404;9.808;2023-03-21T14:36:15;10.50;99.90
43227;DHT22;28839;52.404;9.808;2023-03-21T14:43:10;10.60;99.90
43227;DHT22;28839;52.404;9.808;2023-03-21T14:50:08;10.50;99.90
43227;DHT22;28839;52.404;9.808;2023-03-21T14:57:06;10.70;99.90
43227;DHT22;28839;52.404;9.808;2023-03-21T15:04:05;10.60;99.90
43227;DHT22;28839;52.404;9.808;2023-03-21T15:11:02;10.70;99.90
43227;DHT22;28839;52.404;9.808;2023-03-21T15:18:01;10.70;99.90
43227;DHT22;28839;52.404;9.808;2023-03-21T15:24:58;10.60;99.90
43227;DHT22;28839;52.404;9.808;2023-03-21T15:31:56;10.50;99.90
43227;DHT22;28839;52.404;9.808;2023-03-21T15:38:51;10.40;99.90
43227;DHT22;28839;52.404;9.808;2023-03-21T15:45:46;10.30;99.90
43227;DHT22;28839;52.404;9.808;2023-03-21T15:52:42;10.50;99.90
43227;DHT22;28839;52.404;9.808;2023-03-21T15:59:39;10.40;99.90
43227;DHT22;28839;52.404;9.808;2023-03-21T16:06:35;10.50;99.90
43227;DHT22;28839;52.404;9.808;2023-03-21T16:13:31;10.40;99.90
43227;DHT22;28839;52.404;9.808;2023-03-21T16:20:26;10.40;99.90
43227;DHT22;28839;52.404;9.808;2023-03-21T16:27:21;10.40;99.90
43227;DHT22;28839;52.404;9.808;2023-03-21T16:34:16;10.40;99.90
43227;DHT22;28839;52.404;9.808;2023-03-21T16:41:10;10.40;99.90
43227;DHT22;28839;52.404;9.808;2023-03-21T16:48:05;10.40;99.90
43227;DHT22;28839;52.404;9.808;2023-03-21T16:55:01;10.40;99.90
43227;DHT22;28839;52.404;9.808;2023-03-21T17:01:55;10.40;99.90
43227;DHT22;28839;52.404;9.808;2023-03-21T17:08:49;10.40;99.90
43227;DHT22;28839;52.404;9.808;2023-03-21T17:15:45;10.40;99.90
43227;DHT22;28839;52.404;9.808;2023-03-21T17:22:40;10.40;99.90
43227;DHT22;28839;52.404;9.808;2023-03-21T17:29:34;10.40;99.90
43227;DHT22;28839;52.404;9.808;2023-03-21T17:36:30;10.50;99.90
43227;DHT22;28839;52.404;9.808;2023-03-21T17:43:25;10.50;99.90
43227;DHT22;28839;52.404;9.808;2023-03-21T17:50:21;10.30;99.90
43227;DHT22;28839;52.404;9.808;2023-03-21T17:57:17;10.30;99.90
43227;DHT22;28839;52.404;9.808;2023-03-21T18:04:11;10.40;99.90
43227;DHT22;28839;52.404;9.808;2023-03-21T18:11:06;10.50;99.90
43227;DHT22;28839;52.404;9.808;2023-03-21T18:18:01;10.50;99.90
43227;DHT22;28839;52.404;9.808;2023-03-21T18:24:55;10.50;99.90
43227;DHT22;28839;52.404;9.808;2023-03-21T18:31:49;10.40;99.90
43227;DHT22;28839;52.404;9.808;2023-03-21T18:38:45;10.40;99.90
43227;DHT22;28839;52.404;9.808;2023-03-21T18:45:39;10.40;99.90
43227;DHT22;28839;52.404;9.808;2023-03-21T18:52:33;10.30;99.90
43227;DHT22;28839;52.404;9.808;2023-03-21T18:59:30;10.20;99.90
43227;DHT22;28839;52.404;9.808;2023-03-21T19:06:26;10.20;99.90
43227;DHT22;28839;52.404;9.808;2023-03-21T19:13:19;10.20;99.90
43227;DHT22;28839;52.404;9.808;2023-03-21T19:20:15;10.10;99.90
43227;DHT22;28839;52.404;9.808;2023-03-21T19:27:10;10.20;99.90
43227;DHT22;28839;52.404;9.808;2023-03-21T19:34:04;10.10;99.90
43227;DHT22;28839;52.404;9.808;2023-03-21T19:41:00;10.10;99.90
43227;DHT22;28839;52.404;9.808;2023-03-21T19:47:54;10.20;99.90
43227;DHT22;28839;52.404;9.808;2023-03-21T19:54:48;10.20;99.90
43227;DHT22;28839;52.404;9.808;2023-03-21T20:01:43;10.30;99.90
43227;DHT22;28839;52.404;9.808;2023-03-21T20:08:39;10.20;99.90
43227;DHT22;28839;52.404;9.808;2023-03-21T20:15:34;10.20;99.90
43227;DHT22;28839;52.404;9.808;2023-03-21T20:22:29;10.00;99.90
43227;DHT22;28839;52.404;9.808;2023-03-21T20:29:23;10.00;99.90
43227;DHT22;28839;52.404;9.808;2023-03-21T20:36:17;9.90;99.90
43227;DHT22;28839;52.404;9.808;2023-03-21T20:43:13;9.80;99.90
43227;DHT22;28839;52.404;9.808;2023-03-21T20:50:09;9.80;99.90
43227;DHT22;28839;52.404;9.808;2023-03-21T20:57:04;9.70;99.90
43227;DHT22;28839;52.404;9.808;2023-03-21T21:03:59;9.60;99.90
43227;DHT22;28839;52.404;9.808;2023-03-21T21:10:54;9.50;99.90
43227;DHT22;28839;52.404;9.808;2023-03-21T21:17:47;9.50;99.90
43227;DHT22;28839;52.404;9.808;2023-03-21T21:24:44;9.30;99.90
43227;DHT22;28839;52.404;9.808;2023-03-21T21:31:38;9.40;99.90
43227;DHT22;28839;52.404;9.808;2023-03-21T21:38:32;9.40;99.90
43227;DHT22;28839;52.404;9.808;2023-03-21T21:45:27;9.30;99.90
43227;DHT22;28839;52.404;9.808;2023-03-21T21:52:21;9.30;99.90
43227;DHT22;28839;52.404;9.808;2023-03-21T21:59:16;9.50;99.90
43227;DHT22;28839;52.404;9.808;2023-03-21T22:06:11;9.40;99.90
43227;DHT22;28839;52.404;9.808;2023-03-21T22:13:05;9.30;99.90
43227;DHT22;28839;52.404;9.808;2023-03-21T22:19:59;9.30;99.90
43227;DHT22;28839;52.404;9.808;2023-03-21T22:26:54;9.40;99.90
43227;DHT22;28839;52.404;9.808;2023-03-21T22:33:49;9.40;99.90
43227;DHT22;28839;52.404;9.808;2023-03-21T22:40:43;9.20;99.90
43227;DHT22;28839;52.404;9.808;2023-03-21T22:47:38;9.30;99.90
43227;DHT22;28839;52.404;9.808;2023-03-21T22:54:33;9.20;99.90
43227;DHT22;28839;52.404;9.808;2023-03-21T23:01:26;9.20;99.90
43227;DHT22;28839;52.404;9.808;2023-03-21T23:08:22;9.20;99.90
43227;DHT22;28839;52.404;9.808;2023-03-21T23:15:15;9.30;99.90
43227;DHT22;28839;52.404;9.808;2023-03-21T23:22:09;9.30;99.90
43227;DHT22;28839;52.404;9.808;2023-03-21T23:29:05;9.30;99.90
43227;DHT22;28839;52.404;9.808;2023-03-21T23:36:00;9.30;99.90
43227;DHT22;28839;52.404;9.808;2023-03-21T23:42:54;9.20;99.90
43227;DHT22;28839;52.404;9.808;2023-03-21T23:49:49;9.20;99.90
43227;DHT22;28839;52.404;9.808;2023-03-21T23:56:44;9.10;99.90
